Time;durP1;ratioP1;P1;durP2;ratioP2;P2;SDS_P1;SDS_P2;PMS_P1;PMS_P2;Temp;Humidity;BMP_temperature;BMP_pressure;BME280_temperature;BME280_humidity;BME280_pressure;Samples;Min_cycle;Max_cycle;Signal;HPM_P1;HPM_P2
2021/10/11 00:01:17;;;;;;;5.38;1.48;;;11.60;99.90;;;;;;2588698;54;21421;-81
2021/10/11 00:03:42;;;;;;;8.00;0.73;;;11.60;99.90;;;;;;2594045;47;20026;-77
2021/10/11 00:06:10;;;;;;;6.55;0.85;;;11.50;99.90;;;;;;2597131;47;20491;-75
2021/10/11 00:08:40;;;;;;;5.82;0.80;;;11.50;99.90;;;;;;2598329;54;20026;-77
2021/10/11 00:11:09;;;;;;;4.90;0.60;;;11.40;99.90;;;;;;2590029;54;20034;-74
2021/10/11 00:13:38;;;;;;;8.68;1.67;;;11.40;99.90;;;;;;2595771;39;20455;-75
2021/10/11 00:16:05;;;;;;;4.90;0.98;;;11.40;99.90;;;;;;2600171;47;20357;-79
2021/10/11 00:18:31;;;;;;;8.15;1.13;;;11.30;99.90;;;;;;2600131;47;20480;-76
2021/10/11 00:20:57;;;;;;;7.30;0.47;;;11.30;99.90;;;;;;2591853;47;20030;-75
2021/10/11 00:23:25;;;;;;;4.32;0.40;;;11.20;99.90;;;;;;2592122;46;20110;-75
2021/10/11 00:25:51;;;;;;;8.73;0.52;;;11.20;99.90;;;;;;2599171;47;20026;-81
2021/10/11 00:28:17;;;;;;;4.90;0.90;;;11.20;99.90;;;;;;2599110;46;20033;-76
2021/10/11 00:30:43;;;;;;;5.40;0.52;;;11.10;99.90;;;;;;2595008;47;20118;-79
2021/10/11 00:33:09;;;;;;;6.85;1.10;;;11.10;99.90;;;;;;2589153;54;20122;-75
2021/10/11 00:35:35;;;;;;;4.10;1.05;;;11.10;99.90;;;;;;2599944;46;20023;-82
2021/10/11 00:38:04;;;;;;;11.13;1.25;;;11.10;99.90;;;;;;2599328;46;20022;-77
2021/10/11 00:40:33;;;;;;;3.92;0.50;;;11.10;99.90;;;;;;2598317;31;20427;-75
2021/10/11 00:43:06;;;;;;;7.13;2.03;;;11.00;99.90;;;;;;2589870;47;20022;-79
2021/10/11 00:45:33;;;;;;;3.63;0.40;;;11.10;99.90;;;;;;2599697;54;20065;-79
2021/10/11 00:48:04;;;;;;;4.82;0.65;;;11.10;99.90;;;;;;2600490;47;20022;-76
2021/10/11 00:50:32;;;;;;;5.10;0.50;;;11.00;99.90;;;;;;2597491;39;20343;-76
2021/10/11 00:53:01;;;;;;;7.32;0.50;;;11.10;99.90;;;;;;2590220;54;20042;-75
2021/10/11 00:55:30;;;;;;;4.45;0.57;;;11.10;99.90;;;;;;2600453;46;20058;-78
2021/10/11 00:58:03;;;;;;;7.55;0.60;;;11.00;99.90;;;;;;2600591;46;20027;-75
2021/10/11 01:00:29;;;;;;;7.60;1.85;;;11.00;99.90;;;;;;2596714;54;20061;-75
2021/10/11 01:02:56;;;;;;;4.95;0.73;;;11.00;99.90;;;;;;2589172;47;20031;-79
2021/10/11 01:05:22;;;;;;;3.28;0.65;;;11.00;99.90;;;;;;2599518;47;20038;-78
2021/10/11 01:07:54;;;;;;;6.20;0.40;;;11.00;99.90;;;;;;2600139;47;20030;-76
2021/10/11 01:10:24;;;;;;;9.45;0.75;;;11.00;99.90;;;;;;2598368;54;20041;-75
2021/10/11 01:12:50;;;;;;;3.90;0.95;;;11.00;99.90;;;;;;2585578;46;20022;-78
2021/10/11 01:15:16;;;;;;;8.10;2.17;;;11.00;99.90;;;;;;2598953;46;20049;-77
2021/10/11 01:17:42;;;;;;;4.00;1.13;;;10.90;99.90;;;;;;2598597;46;20030;-75
2021/10/11 01:20:11;;;;;;;10.15;1.02;;;10.90;99.90;;;;;;2597528;54;20106;-77
2021/10/11 01:22:43;;;;;;;8.90;1.02;;;10.90;99.90;;;;;;2583595;51;20041;-76
2021/10/11 01:25:14;;;;;;;2.70;0.50;;;10.90;99.90;;;;;;2600356;39;20292;-75
2021/10/11 01:27:43;;;;;;;2.83;0.98;;;10.90;99.90;;;;;;2598957;46;20118;-78
2021/10/11 01:30:12;;;;;;;10.48;1.17;;;10.80;99.90;;;;;;2599713;46;20076;-78
2021/10/11 01:32:42;;;;;;;8.05;0.90;;;10.80;99.90;;;;;;2584818;46;20125;-75
2021/10/11 01:35:09;;;;;;;6.32;0.40;;;10.80;99.90;;;;;;2600110;54;20038;-76
2021/10/11 01:37:38;;;;;;;5.63;0.73;;;10.80;99.90;;;;;;2598695;46;20422;-79
2021/10/11 01:40:06;;;;;;;4.18;0.50;;;10.80;99.90;;;;;;2600464;47;20029;-75
2021/10/11 01:42:33;;;;;;;9.27;0.60;;;10.80;99.90;;;;;;2583982;47;20043;-76
2021/10/11 01:45:06;;;;;;;12.10;0.80;;;10.70;99.90;;;;;;2600301;46;20022;-74
2021/10/11 01:47:31;;;;;;;5.28;0.50;;;10.70;99.90;;;;;;2599847;46;20029;-75
2021/10/11 01:50:01;;;;;;;3.78;0.75;;;10.70;99.90;;;;;;2599374;47;20042;-75
2021/10/11 01:52:30;;;;;;;13.98;0.82;;;10.70;99.90;;;;;;2586432;47;20498;-82
2021/10/11 01:55:03;;;;;;;8.63;1.33;;;10.70;99.90;;;;;;2600963;47;20035;-76
2021/10/11 01:57:31;;;;;;;6.43;0.60;;;10.70;99.90;;;;;;2598635;46;20026;-75
2021/10/11 01:59:58;;;;;;;5.20;0.65;;;10.60;99.90;;;;;;2600071;46;20027;-74
2021/10/11 02:02:24;;;;;;;8.38;0.60;;;10.60;99.90;;;;;;2585026;54;21333;-75
2021/10/11 02:04:50;;;;;;;5.18;0.60;;;10.60;99.90;;;;;;2599054;47;20033;-76
2021/10/11 02:07:16;;;;;;;7.00;0.40;;;10.60;99.90;;;;;;2598897;39;20465;-75
2021/10/11 02:09:42;;;;;;;6.20;1.25;;;10.50;99.90;;;;;;2598248;47;20489;-76
2021/10/11 02:12:08;;;;;;;6.88;0.55;;;10.50;99.90;;;;;;2585674;47;20064;-75
2021/10/11 02:14:34;;;;;;;4.43;0.63;;;10.50;99.90;;;;;;2596909;46;20038;-77
2021/10/11 02:17:00;;;;;;;10.93;1.00;;;10.50;99.90;;;;;;2600296;39;20454;-75
2021/10/11 02:19:26;;;;;;;6.95;0.40;;;10.50;99.90;;;;;;2599652;46;20026;-76
2021/10/11 02:21:52;;;;;;;5.22;0.77;;;10.50;99.90;;;;;;2584221;54;20568;-75
2021/10/11 02:24:21;;;;;;;10.70;1.35;;;10.50;99.90;;;;;;2594578;47;20027;-79
2021/10/11 02:26:47;;;;;;;11.55;1.05;;;10.40;99.90;;;;;;2598379;47;20133;-75
2021/10/11 02:29:13;;;;;;;3.97;0.40;;;10.40;99.90;;;;;;2596346;46;20030;-76
2021/10/11 02:31:39;;;;;;;5.05;0.50;;;10.40;99.90;;;;;;2587099;54;20058;-81
2021/10/11 02:34:06;;;;;;;4.45;0.90;;;10.40;99.90;;;;;;2596809;46;20129;-80
2021/10/11 02:36:33;;;;;;;4.38;0.90;;;10.40;99.90;;;;;;2599794;46;20039;-75
2021/10/11 02:38:59;;;;;;;4.13;0.50;;;10.40;99.90;;;;;;2598935;54;20053;-82
2021/10/11 02:41:27;;;;;;;7.00;1.05;;;10.30;99.90;;;;;;2589801;46;21058;-78
2021/10/11 02:43:53;;;;;;;10.27;0.65;;;10.30;99.90;;;;;;2595973;47;20030;-75
2021/10/11 02:46:19;;;;;;;5.32;0.40;;;10.30;99.90;;;;;;2597075;46;20030;-77
2021/10/11 02:48:45;;;;;;;7.40;0.80;;;10.30;99.90;;;;;;2598357;39;20343;-76
2021/10/11 02:51:11;;;;;;;7.65;0.70;;;10.30;99.90;;;;;;2589689;46;20042;-75
2021/10/11 02:53:37;;;;;;;3.22;0.38;;;10.30;99.90;;;;;;2594483;47;20475;-77
2021/10/11 02:56:03;;;;;;;5.38;1.20;;;10.20;99.90;;;;;;2600096;47;20023;-76
2021/10/11 02:58:29;;;;;;;4.13;0.47;;;10.30;99.90;;;;;;2600401;46;20023;-82
2021/10/11 03:00:59;;;;;;;7.82;0.70;;;10.20;99.90;;;;;;2589645;46;20054;-78
2021/10/11 03:03:26;;;;;;;5.22;0.50;;;10.20;99.90;;;;;;2593950;47;20034;-76
2021/10/11 03:05:52;;;;;;;6.63;1.25;;;10.20;99.90;;;;;;2598217;47;20034;-77
2021/10/11 03:08:19;;;;;;;7.43;0.60;;;10.20;99.90;;;;;;2599733;46;20034;-76
2021/10/11 03:10:45;;;;;;;3.83;0.40;;;10.10;99.90;;;;;;2592519;54;21379;-75
2021/10/11 03:13:12;;;;;;;5.85;0.50;;;10.20;99.90;;;;;;2590880;54;20030;-78
2021/10/11 03:15:38;;;;;;;3.70;0.30;;;10.10;99.90;;;;;;2600339;47;20141;-81
2021/10/11 03:18:04;;;;;;;4.88;0.98;;;10.10;99.90;;;;;;2598520;46;20026;-79
2021/10/11 03:20:32;;;;;;;10.23;0.73;;;10.10;99.90;;;;;;2594628;46;20037;-75
2021/10/11 03:23:01;;;;;;;10.90;0.68;;;10.10;99.90;;;;;;2589991;39;20380;-75
2021/10/11 03:25:28;;;;;;;5.43;0.93;;;10.00;99.90;;;;;;2599310;54;21227;-76
2021/10/11 03:27:56;;;;;;;5.28;0.40;;;10.10;99.90;;;;;;2598812;47;20049;-75
2021/10/11 03:30:23;;;;;;;10.02;0.40;;;10.10;99.90;;;;;;2599074;54;20039;-77
2021/10/11 03:32:49;;;;;;;6.28;0.50;;;10.10;99.90;;;;;;2584437;47;20034;-75
2021/10/11 03:35:15;;;;;;;8.18;0.60;;;10.10;99.90;;;;;;2597250;46;20045;-82
2021/10/11 03:37:41;;;;;;;2.60;0.30;;;10.10;99.90;;;;;;2598417;39;20338;-79
2021/10/11 03:40:08;;;;;;;3.83;0.35;;;10.00;99.90;;;;;;2599261;47;20147;-75
2021/10/11 03:42:40;;;;;;;7.47;0.30;;;10.00;99.90;;;;;;2585346;39;20290;-75
2021/10/11 03:45:07;;;;;;;2.25;0.60;;;10.00;99.90;;;;;;2599703;47;20529;-74
2021/10/11 03:47:38;;;;;;;8.18;1.10;;;10.00;99.90;;;;;;2598683;46;20022;-78
2021/10/11 03:50:07;;;;;;;4.05;0.40;;;10.00;99.90;;;;;;2598788;47;20041;-75
2021/10/11 03:52:37;;;;;;;6.93;0.40;;;10.00;99.90;;;;;;2584800;47;20029;-75
2021/10/11 03:55:08;;;;;;;4.07;0.43;;;10.00;99.90;;;;;;2599301;47;20114;-75
2021/10/11 03:57:35;;;;;;;4.90;0.40;;;10.00;99.90;;;;;;2600304;54;20034;-81
2021/10/11 04:00:00;;;;;;;3.78;0.50;;;10.00;99.90;;;;;;2600535;47;20674;-75
2021/10/11 04:02:32;;;;;;;5.45;0.55;;;9.90;99.90;;;;;;2584504;47;20026;-74
2021/10/11 04:04:59;;;;;;;3.75;0.40;;;9.90;99.90;;;;;;2600625;47;20056;-75
2021/10/11 04:07:28;;;;;;;8.27;0.60;;;9.90;99.90;;;;;;2600466;39;20391;-75
2021/10/11 04:09:57;;;;;;;4.05;0.63;;;9.90;99.90;;;;;;2599299;47;20804;-79
2021/10/11 04:12:33;;;;;;;6.63;0.70;;;9.90;99.90;;;;;;2584052;47;20053;-75
2021/10/11 04:15:03;;;;;;;3.33;1.77;;;9.90;99.90;;;;;;2599970;47;20030;-75
2021/10/11 04:17:38;;;;;;;11.15;1.55;;;9.80;99.90;;;;;;2598610;47;20053;-75
2021/10/11 04:20:08;;;;;;;6.90;0.68;;;9.80;99.90;;;;;;2600854;39;20634;-76
2021/10/11 04:22:37;;;;;;;11.32;1.95;;;9.80;99.90;;;;;;2582302;54;20057;-74
2021/10/11 04:25:03;;;;;;;6.93;0.60;;;9.80;99.90;;;;;;2599082;47;20039;-83
2021/10/11 04:27:36;;;;;;;7.57;0.43;;;9.80;99.90;;;;;;2600341;47;20026;-74
2021/10/11 04:30:04;;;;;;;5.50;0.43;;;9.80;99.90;;;;;;2600261;47;20789;-76
2021/10/11 04:32:30;;;;;;;7.50;0.65;;;9.80;99.90;;;;;;2584301;47;20022;-81
2021/10/11 04:34:57;;;;;;;7.75;0.93;;;9.80;99.90;;;;;;2598919;47;20202;-80
2021/10/11 04:37:26;;;;;;;5.70;0.77;;;9.80;99.90;;;;;;2599130;47;20022;-75
2021/10/11 04:39:53;;;;;;;9.32;1.00;;;9.80;99.90;;;;;;2599744;47;20034;-75
2021/10/11 04:42:26;;;;;;;3.17;0.57;;;9.80;99.90;;;;;;2584859;54;20037;-77
2021/10/11 04:44:54;;;;;;;9.98;0.63;;;9.80;99.90;;;;;;2599477;54;21029;-76
2021/10/11 04:47:22;;;;;;;5.97;0.47;;;9.80;99.90;;;;;;2599320;47;20137;-79
2021/10/11 04:49:49;;;;;;;5.13;1.75;;;9.70;99.90;;;;;;2597595;54;20034;-76
2021/10/11 04:52:15;;;;;;;8.23;1.35;;;9.70;99.90;;;;;;2584514;54;20035;-81
2021/10/11 04:54:43;;;;;;;9.70;0.77;;;9.80;99.90;;;;;;2598085;54;20683;-75
2021/10/11 04:57:09;;;;;;;8.98;2.35;;;9.80;99.90;;;;;;2599896;47;20029;-75
2021/10/11 04:59:35;;;;;;;5.57;0.90;;;9.80;99.90;;;;;;2600598;39;20373;-75
2021/10/11 05:02:02;;;;;;;7.80;0.50;;;9.70;99.90;;;;;;2585699;47;20030;-76
2021/10/11 05:04:29;;;;;;;4.28;0.47;;;9.80;99.90;;;;;;2601095;46;20173;-79
2021/10/11 05:06:55;;;;;;;4.13;0.52;;;9.60;99.90;;;;;;2599819;47;20042;-78
2021/10/11 05:09:27;;;;;;;6.70;0.68;;;9.70;99.90;;;;;;2599495;46;20022;-78
2021/10/11 05:11:53;;;;;;;4.03;0.80;;;9.70;99.90;;;;;;2586560;47;20150;-82
2021/10/11 05:14:21;;;;;;;9.57;1.58;;;9.80;99.90;;;;;;2597772;54;20069;-76
2021/10/11 05:16:52;;;;;;;10.05;0.90;;;9.80;99.90;;;;;;2598085;54;20057;-75
2021/10/11 05:19:24;;;;;;;10.30;1.13;;;9.80;99.90;;;;;;2600568;46;20040;-78
2021/10/11 05:21:57;;;;;;;5.57;0.55;;;9.70;99.90;;;;;;2585749;47;20034;-75
2021/10/11 05:24:25;;;;;;;9.13;0.90;;;9.80;99.90;;;;;;2598517;46;20138;-82
2021/10/11 05:26:54;;;;;;;12.90;0.93;;;9.80;99.90;;;;;;2598964;46;20023;-81
2021/10/11 05:29:26;;;;;;;7.85;0.82;;;9.80;99.90;;;;;;2600271;47;21114;-75
2021/10/11 05:31:53;;;;;;;8.35;0.60;;;9.80;99.90;;;;;;2582907;54;20030;-75
2021/10/11 05:34:22;;;;;;;4.90;1.70;;;9.70;99.90;;;;;;2599078;46;20033;-76
2021/10/11 05:36:48;;;;;;;14.63;2.15;;;9.80;99.90;;;;;;2599288;47;20030;-75
2021/10/11 05:39:16;;;;;;;7.60;0.55;;;9.80;99.90;;;;;;2598920;47;20022;-75
2021/10/11 05:41:42;;;;;;;9.60;0.98;;;9.80;99.90;;;;;;2585422;46;20045;-84
2021/10/11 05:44:08;;;;;;;3.85;0.50;;;9.80;99.90;;;;;;2596998;46;20053;-75
2021/10/11 05:46:37;;;;;;;4.15;0.50;;;9.80;99.90;;;;;;2599687;46;21500;-75
2021/10/11 05:49:04;;;;;;;5.32;1.02;;;9.80;99.90;;;;;;2600552;47;20034;-75
2021/10/11 05:51:37;;;;;;;7.70;0.73;;;9.80;99.90;;;;;;2588183;46;20079;-74
2021/10/11 05:54:04;;;;;;;6.68;1.00;;;9.80;99.90;;;;;;2597699;47;20030;-78
2021/10/11 05:56:32;;;;;;;13.98;1.00;;;9.80;99.90;;;;;;2600149;47;20027;-78
2021/10/11 05:59:02;;;;;;;6.78;0.98;;;9.80;99.90;;;;;;2597603;46;20031;-78
2021/10/11 06:01:28;;;;;;;5.78;0.50;;;9.80;99.90;;;;;;2588729;39;20328;-83
2021/10/11 06:03:54;;;;;;;5.63;0.82;;;9.80;99.90;;;;;;2596912;47;20643;-75
2021/10/11 06:06:23;;;;;;;8.18;0.90;;;9.80;99.90;;;;;;2600305;54;20462;-82
2021/10/11 06:08:51;;;;;;;8.27;1.27;;;9.70;99.90;;;;;;2599302;47;20026;-79
2021/10/11 06:11:24;;;;;;;5.85;0.55;;;9.80;99.90;;;;;;2590011;39;20251;-77
2021/10/11 06:13:50;;;;;;;7.05;1.42;;;9.80;99.90;;;;;;2595509;46;20037;-82
2021/10/11 06:16:22;;;;;;;7.68;1.02;;;9.80;99.90;;;;;;2599860;47;20030;-79
2021/10/11 06:18:48;;;;;;;8.70;1.52;;;9.80;99.90;;;;;;2600300;46;20046;-82
2021/10/11 06:21:17;;;;;;;9.95;2.63;;;9.80;99.90;;;;;;2589029;54;20597;-78
2021/10/11 06:23:43;;;;;;;9.23;1.10;;;9.70;99.90;;;;;;2594857;47;20022;-82
2021/10/11 06:26:09;;;;;;;10.48;1.90;;;9.70;99.90;;;;;;2600110;47;20026;-82
2021/10/11 06:28:37;;;;;;;8.65;1.50;;;9.80;99.90;;;;;;2601028;39;20506;-79
2021/10/11 06:31:11;;;;;;;11.68;1.23;;;9.80;99.90;;;;;;2589944;47;20038;-74
2021/10/11 06:33:37;;;;;;;7.97;0.80;;;9.80;99.90;;;;;;2595238;46;20022;-74
2021/10/11 06:36:08;;;;;;;20.25;1.38;;;9.80;99.90;;;;;;2600615;46;20046;-77
2021/10/11 06:38:35;;;;;;;10.35;1.13;;;9.80;99.90;;;;;;2600269;46;20053;-77
2021/10/11 06:41:04;;;;;;;11.18;1.40;;;9.80;99.90;;;;;;2590493;54;20130;-79
2021/10/11 06:43:31;;;;;;;8.55;1.20;;;9.80;99.90;;;;;;2594352;47;20506;-76
2021/10/11 06:45:56;;;;;;;12.85;1.55;;;9.90;99.90;;;;;;2599200;47;20038;-75
2021/10/11 06:48:24;;;;;;;10.32;1.05;;;9.90;99.90;;;;;;2599196;54;20057;-81
2021/10/11 06:50:52;;;;;;;13.93;1.38;;;9.90;99.90;;;;;;2592734;47;20038;-75
2021/10/11 06:53:18;;;;;;;7.35;1.30;;;9.90;99.90;;;;;;2591328;46;20145;-78
2021/10/11 06:55:48;;;;;;;8.05;1.50;;;10.00;99.90;;;;;;2600431;46;20097;-76
2021/10/11 06:58:14;;;;;;;6.93;1.10;;;10.00;99.90;;;;;;2600775;31;20426;-75
2021/10/11 07:00:46;;;;;;;14.13;2.00;;;10.00;99.90;;;;;;2592700;46;20034;-81
2021/10/11 07:03:12;;;;;;;11.40;1.20;;;10.10;99.90;;;;;;2587728;46;20034;-80
2021/10/11 07:05:40;;;;;;;11.88;2.28;;;10.10;99.90;;;;;;2599306;47;20481;-78
2021/10/11 07:08:09;;;;;;;8.43;1.23;;;10.10;99.90;;;;;;2600099;47;20037;-78
2021/10/11 07:10:38;;;;;;;7.53;1.65;;;10.10;99.90;;;;;;2595984;54;20042;-83
2021/10/11 07:13:05;;;;;;;12.00;0.90;;;10.20;99.90;;;;;;2588746;31;20388;-78
2021/10/11 07:15:33;;;;;;;15.93;0.80;;;10.20;99.90;;;;;;2599360;46;20036;-81
2021/10/11 07:18:01;;;;;;;12.25;1.60;;;10.30;99.90;;;;;;2600537;51;20040;-80
2021/10/11 07:20:30;;;;;;;6.07;0.70;;;10.30;99.90;;;;;;2597300;47;20089;-79
2021/10/11 07:22:59;;;;;;;10.30;1.40;;;10.40;99.90;;;;;;2587573;47;20177;-76
2021/10/11 07:25:25;;;;;;;12.18;1.10;;;10.40;99.90;;;;;;2597539;47;20034;-81
2021/10/11 07:27:51;;;;;;;6.03;0.60;;;10.50;99.90;;;;;;2600091;31;20439;-77
2021/10/11 07:30:17;;;;;;;9.18;1.55;;;10.50;99.90;;;;;;2599997;54;20054;-78
2021/10/11 07:32:45;;;;;;;9.43;0.85;;;10.50;99.90;;;;;;2584446;47;20052;-74
2021/10/11 07:35:11;;;;;;;6.50;1.15;;;10.60;99.90;;;;;;2599847;47;20061;-82
2021/10/11 07:37:39;;;;;;;10.77;0.63;;;10.60;99.90;;;;;;2598574;47;20061;-82
2021/10/11 07:40:05;;;;;;;5.55;0.50;;;10.70;99.90;;;;;;2599832;51;20052;-79
2021/10/11 07:42:34;;;;;;;9.15;0.70;;;10.80;99.90;;;;;;2585513;47;20057;-73
2021/10/11 07:45:04;;;;;;;8.88;0.60;;;10.80;99.90;;;;;;2599018;47;20035;-77
2021/10/11 07:47:36;;;;;;;11.13;0.70;;;10.90;99.90;;;;;;2600639;47;20040;-80
2021/10/11 07:50:02;;;;;;;8.15;1.15;;;11.00;99.90;;;;;;2601530;31;20435;-75
2021/10/11 07:52:31;;;;;;;10.60;0.70;;;11.00;99.90;;;;;;2584769;54;21031;-80
2021/10/11 07:55:01;;;;;;;14.40;1.70;;;11.10;99.90;;;;;;2600488;47;20122;-80
2021/10/11 07:57:33;;;;;;;9.90;2.30;;;11.10;99.90;;;;;;2600664;54;20038;-81
2021/10/11 08:00:02;;;;;;;16.38;1.10;;;11.20;99.90;;;;;;2599670;47;20508;-82
2021/10/11 08:02:28;;;;;;;10.32;0.77;;;11.20;99.90;;;;;;2584316;54;20034;-82
2021/10/11 08:04:55;;;;;;;9.77;0.90;;;11.30;99.90;;;;;;2598743;54;20577;-80
2021/10/11 08:07:22;;;;;;;9.93;1.17;;;11.30;99.90;;;;;;2599899;47;20126;-75
2021/10/11 08:09:49;;;;;;;10.55;0.75;;;11.40;99.90;;;;;;2597334;47;20505;-78
2021/10/11 08:12:17;;;;;;;8.35;0.77;;;11.50;99.90;;;;;;2583809;47;20034;-77
2021/10/11 08:14:44;;;;;;;11.65;2.78;;;11.50;99.90;;;;;;2599879;39;20305;-76
2021/10/11 08:17:16;;;;;;;9.88;0.88;;;11.60;99.90;;;;;;2598324;47;20034;-80
2021/10/11 08:19:45;;;;;;;13.32;1.85;;;11.70;99.90;;;;;;2600511;47;20033;-88
2021/10/11 08:22:20;;;;;;;12.13;1.55;;;11.70;99.90;;;;;;2584541;54;20038;-86
2021/10/11 08:24:50;;;;;;;6.45;0.65;;;11.80;99.90;;;;;;2598959;47;20475;-75
2021/10/11 08:27:17;;;;;;;8.43;0.60;;;11.90;99.90;;;;;;2600170;47;20022;-83
2021/10/11 08:29:44;;;;;;;11.57;0.65;;;12.00;99.90;;;;;;2599841;47;20023;-78
2021/10/11 08:32:11;;;;;;;10.23;0.70;;;12.10;99.90;;;;;;2585956;47;20053;-75
2021/10/11 08:34:37;;;;;;;5.82;1.05;;;12.20;99.90;;;;;;2600732;47;20034;-81
2021/10/11 08:37:06;;;;;;;7.50;0.43;;;12.30;99.90;;;;;;2601090;47;20833;-79
2021/10/11 08:39:37;;;;;;;6.35;0.70;;;12.40;99.90;;;;;;2602162;39;20813;-79
2021/10/11 08:42:15;;;;;;;18.77;1.92;;;12.50;99.90;;;;;;2585350;47;20050;-78
2021/10/11 08:44:44;;;;;;;7.30;0.60;;;12.50;99.90;;;;;;2601352;46;20022;-76
2021/10/11 08:47:12;;;;;;;4.82;0.30;;;12.50;99.90;;;;;;2600713;46;20022;-75
2021/10/11 08:49:49;;;;;;;4.78;0.47;;;12.50;99.90;;;;;;2601752;54;20042;-80
2021/10/11 08:52:24;;;;;;;3.95;0.50;;;12.40;99.90;;;;;;2585194;47;20035;-79
2021/10/11 08:54:58;;;;;;;1.88;0.32;;;12.40;99.90;;;;;;2600746;50;20552;-80
2021/10/11 08:57:27;;;;;;;4.82;0.38;;;12.40;99.90;;;;;;2599915;46;20172;-77
2021/10/11 09:00:06;;;;;;;3.30;0.20;;;12.50;99.90;;;;;;2600097;54;20026;-78
2021/10/11 09:02:33;;;;;;;2.30;0.57;;;12.50;99.90;;;;;;2584188;54;20026;-75
2021/10/11 09:04:59;;;;;;;3.15;0.25;;;12.50;99.90;;;;;;2598545;46;20030;-82
2021/10/11 09:07:29;;;;;;;2.58;0.43;;;12.50;99.90;;;;;;2600537;31;20423;-78
2021/10/11 09:09:59;;;;;;;2.70;0.20;;;12.50;99.90;;;;;;2600941;46;20114;-82
2021/10/11 09:12:32;;;;;;;4.25;0.20;;;12.60;99.90;;;;;;2581416;47;20454;-81
2021/10/11 09:15:12;;;;;;;9.80;0.85;;;12.60;99.90;;;;;;2601546;46;20034;-77
2021/10/11 09:17:46;;;;;;;5.30;0.30;;;12.70;99.90;;;;;;2600018;46;20037;-80
2021/10/11 09:20:24;;;;;;;7.50;0.70;;;12.80;99.90;;;;;;2599897;47;20030;-76
2021/10/11 09:23:00;;;;;;;2.17;0.20;;;12.90;99.90;;;;;;2586787;39;20393;-79
2021/10/11 09:25:36;;;;;;;3.90;0.98;;;13.00;99.90;;;;;;2599148;54;20034;-77
2021/10/11 09:28:03;;;;;;;5.70;0.40;;;13.10;99.90;;;;;;2600452;47;20034;-76
2021/10/11 09:30:41;;;;;;;5.00;0.77;;;13.20;99.90;;;;;;2597756;46;20034;-77
2021/10/11 09:33:13;;;;;;;15.32;1.95;;;13.30;99.90;;;;;;2591666;31;20406;-79
2021/10/11 09:35:44;;;;;;;2.40;0.38;;;13.40;99.90;;;;;;2600822;46;20052;-77
2021/10/11 09:38:39;;;;;;;10.55;0.82;;;13.50;99.90;;;;;;2601471;47;20030;-84
2021/10/11 09:41:16;;;;;;;5.93;0.82;;;13.70;99.90;;;;;;2592308;46;20093;-82
2021/10/11 09:43:45;;;;;;;8.05;0.80;;;13.80;99.90;;;;;;2594419;39;20398;-81
2021/10/11 09:46:15;;;;;;;5.93;0.65;;;13.90;99.90;;;;;;2598892;47;20026;-77
2021/10/11 09:48:53;;;;;;;5.50;0.50;;;13.90;99.90;;;;;;2601490;39;20087;-79
2021/10/11 09:51:24;;;;;;;7.55;0.47;;;14.00;99.90;;;;;;2588842;47;20034;-77
2021/10/11 09:53:54;;;;;;;8.48;0.85;;;14.00;99.90;;;;;;2596696;46;20022;-80
2021/10/11 09:56:25;;;;;;;3.47;0.40;;;14.00;99.90;;;;;;2599749;54;20455;-81
2021/10/11 09:58:54;;;;;;;4.95;0.80;;;14.00;99.90;;;;;;2599648;46;20030;-78
2021/10/11 10:01:25;;;;;;;5.80;0.70;;;13.90;99.90;;;;;;2589902;46;20118;-80
2021/10/11 10:03:53;;;;;;;6.70;0.60;;;13.90;99.90;;;;;;2595459;47;20528;-78
2021/10/11 10:06:23;;;;;;;5.60;0.63;;;13.90;99.90;;;;;;2600820;47;20038;-80
2021/10/11 10:08:52;;;;;;;6.40;0.90;;;13.90;99.90;;;;;;2599849;46;20034;-79
2021/10/11 10:11:23;;;;;;;10.00;0.55;;;13.90;99.90;;;;;;2587979;46;20041;-77
2021/10/11 10:13:49;;;;;;;6.15;0.65;;;13.90;99.90;;;;;;2595240;39;20362;-78
2021/10/11 10:16:24;;;;;;;5.90;0.70;;;14.00;99.90;;;;;;2600498;46;20037;-82
2021/10/11 10:18:50;;;;;;;7.53;1.38;;;14.10;99.90;;;;;;2597529;39;20462;-79
2021/10/11 10:21:17;;;;;;;3.25;0.40;;;14.20;99.90;;;;;;2590478;54;20065;-80
2021/10/11 10:23:55;;;;;;;6.70;0.75;;;14.30;99.90;;;;;;2594516;47;20041;-80
2021/10/11 10:26:35;;;;;;;8.27;1.35;;;14.30;99.90;;;;;;2599294;54;20037;-82
2021/10/11 10:29:23;;;;;;;8.68;1.77;;;14.20;99.90;;;;;;2601230;46;21477;-81
2021/10/11 10:31:49;;;;;;;14.27;1.30;;;14.30;99.90;;;;;;2585723;46;20052;-81
2021/10/11 10:34:23;;;;;;;4.45;1.20;;;14.40;99.90;;;;;;2596807;54;20114;-83
2021/10/11 10:37:01;;;;;;;8.50;0.40;;;14.50;99.90;;;;;;2599516;46;20037;-81
2021/10/11 10:39:40;;;;;;;4.50;0.52;;;14.60;99.90;;;;;;2599961;47;20022;-81
2021/10/11 10:42:08;;;;;;;4.28;0.30;;;14.70;99.90;;;;;;2584789;46;20026;-85
2021/10/11 10:44:45;;;;;;;5.63;0.30;;;14.80;99.90;;;;;;2600188;47;20522;-83
2021/10/11 10:47:16;;;;;;;7.68;0.32;;;14.90;99.90;;;;;;2601694;46;20137;-82
2021/10/11 10:49:47;;;;;;;9.10;1.17;;;15.00;99.90;;;;;;2598417;54;20153;-82
2021/10/11 10:52:16;;;;;;;5.78;0.40;;;14.90;99.90;;;;;;2583762;46;20030;-83
2021/10/11 10:54:49;;;;;;;5.50;0.43;;;14.80;99.90;;;;;;2598843;47;20023;-80
2021/10/11 10:57:21;;;;;;;7.00;1.15;;;14.80;99.90;;;;;;2599749;46;20041;-81
2021/10/11 10:59:56;;;;;;;7.65;0.57;;;14.60;99.90;;;;;;2599045;54;20042;-78
2021/10/11 11:02:26;;;;;;;6.13;0.77;;;14.60;99.90;;;;;;2578853;46;21483;-83
2021/10/11 11:05:01;;;;;;;5.75;0.52;;;14.50;99.90;;;;;;2597730;47;20130;-82
2021/10/11 11:07:37;;;;;;;6.28;0.43;;;14.40;99.90;;;;;;2599429;47;20459;-83
2021/10/11 11:10:18;;;;;;;5.03;0.30;;;14.50;99.90;;;;;;2599015;47;20050;-79
2021/10/11 11:13:06;;;;;;;3.83;0.57;;;14.60;99.90;;;;;;2584401;46;20121;-81
2021/10/11 11:15:38;;;;;;;8.98;0.95;;;14.60;99.90;;;;;;2598098;47;20039;-78
2021/10/11 11:18:15;;;;;;;7.53;0.30;;;14.60;99.90;;;;;;2599026;54;20030;-83
2021/10/11 11:20:44;;;;;;;6.53;0.77;;;14.60;99.90;;;;;;2595390;46;20041;-85
2021/10/11 11:23:11;;;;;;;7.03;0.40;;;14.50;99.90;;;;;;2587134;39;20419;-78
2021/10/11 11:25:48;;;;;;;5.80;0.73;;;14.50;99.90;;;;;;2598930;39;20423;-83
2021/10/11 11:28:18;;;;;;;6.18;0.35;;;14.50;99.90;;;;;;2599087;47;20130;-83
2021/10/11 11:30:45;;;;;;;7.00;0.65;;;14.40;99.90;;;;;;2593604;39;20240;-78
2021/10/11 11:33:15;;;;;;;7.30;0.38;;;14.50;99.90;;;;;;2587648;47;20166;-80
2021/10/11 11:35:49;;;;;;;14.77;1.92;;;14.40;99.90;;;;;;2598757;46;20068;-82
2021/10/11 11:38:24;;;;;;;9.10;0.45;;;14.40;99.90;;;;;;2598617;47;20061;-82
2021/10/11 11:40:53;;;;;;;2.70;0.20;;;14.30;99.90;;;;;;2594382;47;20073;-81
2021/10/11 11:43:22;;;;;;;2.63;0.60;;;14.30;99.90;;;;;;2591998;47;20043;-82
2021/10/11 11:45:54;;;;;;;4.80;0.40;;;14.20;99.90;;;;;;2598609;47;20035;-84
2021/10/11 11:48:30;;;;;;;4.07;0.60;;;14.20;99.90;;;;;;2599341;54;20034;-80
2021/10/11 11:51:03;;;;;;;6.57;0.60;;;14.20;99.90;;;;;;2592491;47;20069;-78
2021/10/11 11:53:32;;;;;;;4.90;0.57;;;14.30;99.90;;;;;;2590919;54;20073;-78
2021/10/11 11:56:01;;;;;;;10.15;0.60;;;14.50;99.90;;;;;;2597755;47;20065;-80
2021/10/11 11:58:32;;;;;;;5.60;0.63;;;14.60;99.90;;;;;;2598331;47;20039;-79
2021/10/11 12:01:00;;;;;;;6.70;0.50;;;14.80;99.90;;;;;;2591619;47;21107;-84
2021/10/11 12:03:32;;;;;;;3.75;0.47;;;15.00;99.90;;;;;;2591414;47;20172;-83
2021/10/11 12:06:00;;;;;;;7.10;0.50;;;15.10;99.90;;;;;;2598137;47;20076;-81
2021/10/11 12:08:29;;;;;;;2.08;0.28;;;15.30;99.90;;;;;;2599355;46;20035;-83
2021/10/11 12:11:01;;;;;;;1.00;0.10;;;15.40;99.90;;;;;;2592243;47;20502;-84
2021/10/11 12:13:43;;;;;;;8.10;0.20;;;15.50;99.90;;;;;;2593233;54;20030;-80
2021/10/11 12:16:20;;;;;;;3.28;0.15;;;15.60;99.90;;;;;;2601705;39;20354;-83
2021/10/11 12:18:52;;;;;;;2.55;0.20;;;15.70;99.90;;;;;;2600347;46;20042;-82
2021/10/11 12:21:22;;;;;;;3.58;0.75;;;15.80;99.90;;;;;;2590232;46;20141;-81
2021/10/11 12:23:52;;;;;;;2.42;0.22;;;15.80;99.90;;;;;;2594838;39;20382;-77
2021/10/11 12:26:20;;;;;;;8.48;0.38;;;15.90;99.90;;;;;;2600737;46;20205;-83
2021/10/11 12:28:50;;;;;;;4.55;0.73;;;15.90;99.90;;;;;;2600160;54;20038;-79
2021/10/11 12:31:29;;;;;;;5.40;0.43;;;16.10;99.90;;;;;;2593329;46;21659;-82
2021/10/11 12:34:12;;;;;;;2.42;0.20;;;16.10;99.90;;;;;;2598879;46;20031;-80
2021/10/11 12:36:52;;;;;;;2.70;0.50;;;16.10;99.90;;;;;;2600691;46;20034;-81
2021/10/11 12:39:34;;;;;;;6.82;0.40;;;15.90;99.90;;;;;;2600405;54;20037;-78
2021/10/11 12:42:01;;;;;;;6.20;0.30;;;15.80;99.90;;;;;;2586183;46;20030;-80
2021/10/11 12:44:43;;;;;;;4.85;0.35;;;15.80;99.90;;;;;;2599298;46;20030;-85
2021/10/11 12:47:09;;;;;;;7.30;0.20;;;15.80;99.90;;;;;;2600988;54;20057;-84
2021/10/11 12:49:37;;;;;;;6.95;1.27;;;15.80;99.90;;;;;;2601515;31;20449;-86
2021/10/11 12:52:08;;;;;;;2.72;0.10;;;16.00;99.90;;;;;;2586373;46;20031;-82
2021/10/11 12:54:39;;;;;;;7.38;0.40;;;16.10;99.90;;;;;;2601476;39;20304;-86
2021/10/11 12:57:06;;;;;;;4.72;0.60;;;16.20;99.90;;;;;;2601731;54;20780;-79
2021/10/11 12:59:40;;;;;;;5.00;0.50;;;16.20;99.90;;;;;;2598925;46;20114;-81